Time;durP1;ratioP1;P1;durP2;ratioP2;P2;SDS_P1;SDS_P2;PMS_P1;PMS_P2;Temp;Humidity;BMP_temperature;BMP_pressure;BME280_temperature;BME280_humidity;BME280_pressure;Samples;Min_cycle;Max_cycle;Signal;HPM_P1;HPM_P2
2022/04/28 00:00:28;;;;;;;9.08;5.58;;;;;;;6.49;68.87;101552.20;1676545;85;28828;-78
2022/04/28 00:02:56;;;;;;;9.08;5.10;;;;;;;6.48;68.90;101557.16;1676226;84;25857;-78
2022/04/28 00:05:24;;;;;;;9.10;5.30;;;;;;;6.49;68.72;101551.36;1651232;85;25839;-78
2022/04/28 00:07:51;;;;;;;8.80;5.37;;;;;;;6.48;68.72;101549.18;1676587;85;26033;-78
2022/04/28 00:10:18;;;;;;;10.15;5.58;;;;;;;6.48;68.69;101556.34;1676662;85;25957;-78
2022/04/28 00:12:44;;;;;;;13.30;5.67;;;;;;;6.50;68.70;101557.87;1676350;85;27475;-78
2022/04/28 00:15:11;;;;;;;9.48;6.05;;;;;;;6.53;68.81;101551.44;1676361;84;26566;-78
2022/04/28 00:17:37;;;;;;;11.10;5.65;;;;;;;6.56;68.78;101549.84;1676227;84;25825;-78
2022/04/28 00:20:09;;;;;;;9.18;5.78;;;;;;;6.60;68.85;101545.92;1676375;85;26545;-78
2022/04/28 00:22:36;;;;;;;9.30;5.50;;;;;;;6.63;68.76;101550.98;1675950;85;25967;-78
2022/04/28 00:25:03;;;;;;;7.95;5.20;;;;;;;6.64;68.64;101548.66;1676543;84;28258;-78
2022/04/28 00:27:29;;;;;;;8.65;5.12;;;;;;;6.59;68.49;101549.06;1676653;85;25303;-77
2022/04/28 00:29:56;;;;;;;9.35;5.28;;;;;;;6.54;68.50;101549.14;1676164;85;25815;-78
2022/04/28 00:32:23;;;;;;;9.30;4.87;;;;;;;6.54;68.53;101543.81;1676248;85;25820;-77
2022/04/28 00:34:49;;;;;;;10.45;4.75;;;;;;;6.54;68.36;101551.80;1675904;84;26531;-78
2022/04/28 00:37:15;;;;;;;11.12;5.45;;;;;;;6.51;68.28;101546.73;1697263;83;27550;-78
2022/04/28 00:39:41;;;;;;;10.28;5.42;;;;;;;6.49;68.38;101541.56;1709785;83;25766;-78
2022/04/28 00:42:12;;;;;;;8.10;5.35;;;;;;;6.49;68.31;101540.71;1709622;83;25772;-78
2022/04/28 00:44:39;;;;;;;10.28;4.80;;;;;;;6.50;68.24;101541.08;1632968;87;26604;-78
2022/04/28 00:47:07;;;;;;;9.45;4.70;;;;;;;6.54;68.24;101541.16;1633037;87;26547;-79
2022/04/28 00:52:20;;;;;;;8.90;5.15;;;;;;;6.55;68.15;101540.16;1633131;87;25801;-78
2022/04/28 00:54:49;;;;;;;9.83;5.25;;;;;;;6.56;68.09;101544.52;1622818;87;25362;-78
2022/04/28 00:57:17;;;;;;;9.88;5.65;;;;;;;6.54;68.06;101545.99;1612146;88;25866;-78
2022/04/28 00:59:46;;;;;;;8.55;5.03;;;;;;;6.54;68.03;101541.16;1617659;87;26561;-78
2022/04/28 01:02:13;;;;;;;10.50;4.97;;;;;;;6.55;68.03;101545.48;1614304;88;27369;-78
2022/04/28 01:04:40;;;;;;;8.05;5.22;;;;;;;6.52;67.83;101543.11;1617688;88;26264;-78
2022/04/28 01:07:06;;;;;;;9.73;5.17;;;;;;;6.48;67.87;101542.53;1618334;87;25908;-78
2022/04/28 01:09:36;;;;;;;8.60;4.60;;;;;;;6.47;68.07;101544.00;1636086;87;25978;-78
2022/04/28 01:12:05;;;;;;;12.82;4.42;;;;;;;6.44;68.08;101542.45;1622476;86;25906;-78
2022/04/28 01:14:32;;;;;;;8.78;4.80;;;;;;;6.40;68.00;101542.37;1624142;87;27483;-78
2022/04/28 01:17:01;;;;;;;11.53;5.15;;;;;;;6.36;67.94;101542.30;1651277;85;25923;-78
2022/04/28 01:19:28;;;;;;;9.80;5.47;;;;;;;6.33;67.98;101534.58;1634970;87;25838;-78
2022/04/28 01:21:56;;;;;;;9.85;5.50;;;;;;;6.31;68.03;101525.89;1593229;88;25896;-78
2022/04/28 01:24:23;;;;;;;11.03;6.33;;;;;;;6.32;67.89;101536.05;1551403;90;25955;-78
2022/04/28 01:26:54;;;;;;;8.33;4.83;;;;;;;6.29;67.86;101535.02;1579630;88;27569;-78
2022/04/28 01:29:21;;;;;;;9.53;5.12;;;;;;;6.28;67.91;101533.32;1596403;88;25949;-79
2022/04/28 01:31:48;;;;;;;14.98;9.23;;;;;;;6.27;67.95;101528.96;1570295;88;26185;-78
2022/04/28 01:34:14;;;;;;;12.05;7.70;;;;;;;6.23;67.97;101527.92;1596880;87;25861;-78
2022/04/28 01:36:42;;;;;;;10.80;6.67;;;;;;;6.22;68.00;101528.88;1582248;88;26732;-78
2022/04/28 01:39:09;;;;;;;11.25;6.05;;;;;;;6.22;68.08;101529.40;1570609;88;27476;-78
2022/04/28 01:41:36;;;;;;;8.33;5.72;;;;;;;6.16;68.01;101528.59;1578279;88;25950;-78
2022/04/28 01:44:03;;;;;;;7.65;5.53;;;;;;;6.14;68.12;101527.88;1583530;88;25865;-78
2022/04/28 01:46:30;;;;;;;9.53;6.00;;;;;;;6.10;68.06;101532.64;1609464;87;25757;-78
2022/04/28 01:48:59;;;;;;;11.20;6.70;;;;;;;6.05;68.05;101528.20;1576148;88;25967;-78
2022/04/28 01:57:02;;;;;;;13.13;5.67;;;;;;;6.02;68.72;101536.47;1580541;88;25904;-78
2022/04/28 01:59:30;;;;;;;11.68;5.45;;;;;;;6.02;68.81;101528.97;1563418;88;26231;-78
2022/04/28 02:02:07;;;;;;;12.33;5.50;;;;;;;5.99;68.77;101529.23;1580770;88;26590;-78
2022/04/28 02:04:34;;;;;;;13.28;6.72;;;;;;;5.96;68.73;101534.36;1582629;88;27572;-78
2022/04/28 02:07:01;;;;;;;9.23;5.65;;;;;;;5.96;68.90;101534.84;1583227;88;25940;-78
2022/04/28 02:09:28;;;;;;;12.70;5.95;;;;;;;5.93;68.84;101535.94;1583217;88;25915;-78
2022/04/28 02:11:55;;;;;;;11.68;6.15;;;;;;;5.86;68.84;101528.65;1607900;86;25953;-78
2022/04/28 02:14:23;;;;;;;8.78;5.25;;;;;;;5.78;68.80;101520.44;1578301;89;25825;-77
2022/04/28 02:17:08;;;;;;;8.18;5.42;;;;;;;5.73;68.93;101516.03;1584567;88;27418;-77
2022/04/28 02:19:36;;;;;;;8.50;4.92;;;;;;;5.67;68.88;101517.39;1582372;88;25973;-78
2022/04/28 02:22:04;;;;;;;10.35;5.17;;;;;;;5.65;68.98;101511.84;1583487;88;26463;-78
2022/04/28 02:24:32;;;;;;;11.18;5.80;;;;;;;5.62;68.93;101519.62;1569773;89;25915;-78
2022/04/28 02:26:58;;;;;;;10.63;5.62;;;;;;;5.61;69.28;101519.73;1557266;89;25880;-78
2022/04/28 02:29:24;;;;;;;9.73;5.60;;;;;;;5.56;69.35;101521.97;1575341;88;28280;-78
2022/04/28 02:31:51;;;;;;;11.70;5.72;;;;;;;5.49;69.43;101526.97;1575223;88;25961;-78
2022/04/28 02:34:18;;;;;;;11.70;6.87;;;;;;;5.41;69.60;101520.11;1637828;85;25775;-79
2022/04/28 02:36:46;;;;;;;9.15;5.83;;;;;;;5.31;69.77;101520.07;1646310;86;26749;-78
2022/04/28 02:39:17;;;;;;;8.03;5.12;;;;;;;5.22;70.11;101520.84;1621045;86;25943;-79
2022/04/28 02:41:46;;;;;;;8.85;5.65;;;;;;;5.15;70.30;101517.05;1642400;86;26999;-78
2022/04/28 02:44:13;;;;;;;11.05;5.62;;;;;;;5.09;70.60;101506.91;1619047;86;26587;-78
2022/04/28 02:46:42;;;;;;;7.70;4.95;;;;;;;5.02;70.80;101507.09;1631266;85;25769;-78
2022/04/28 02:49:10;;;;;;;7.50;4.90;;;;;;;4.97;71.20;101509.77;1638395;86;26012;-77
2022/04/28 02:51:38;;;;;;;7.60;4.87;;;;;;;4.93;71.11;101511.00;1636902;85;25308;-78
2022/04/28 02:54:05;;;;;;;7.90;5.53;;;;;;;4.86;71.23;101521.76;1622307;86;28384;-78
2022/04/28 02:56:33;;;;;;;10.63;6.22;;;;;;;4.78;71.43;101527.72;1608702;87;25919;-78
2022/04/28 02:59:01;;;;;;;8.58;5.05;;;;;;;4.70;71.54;101530.17;1647724;85;25922;-78
2022/04/28 03:01:27;;;;;;;9.40;4.53;;;;;;;4.60;71.42;101536.70;1638989;85;26497;-78
2022/04/28 03:03:54;;;;;;;12.90;5.35;;;;;;;4.43;71.73;101544.34;1649526;85;25831;-77
2022/04/28 03:11:53;;;;;;;7.12;4.37;;;;;;;4.30;73.05;101539.70;1637386;86;26613;-78
2022/04/28 03:14:20;;;;;;;6.65;4.10;;;;;;;4.30;72.97;101537.86;1629204;86;26549;-78
2022/04/28 03:16:46;;;;;;;8.98;5.10;;;;;;;4.28;72.96;101537.15;1625263;85;26594;-78
2022/04/28 03:19:13;;;;;;;10.98;4.80;;;;;;;4.32;73.18;101535.93;1630250;85;27923;-78
2022/04/28 03:21:40;;;;;;;7.58;5.10;;;;;;;4.39;73.34;101537.61;1635701;85;25979;-78
2022/04/28 03:24:07;;;;;;;8.93;4.92;;;;;;;4.44;73.17;101535.43;1644503;84;25984;-78
2022/04/28 03:26:37;;;;;;;11.80;5.37;;;;;;;4.46;73.26;101535.67;1669663;84;26622;-78
2022/04/28 03:29:02;;;;;;;9.10;5.20;;;;;;;4.49;73.27;101539.38;1666608;85;26063;-77
2022/04/28 03:31:28;;;;;;;11.90;4.78;;;;;;;4.53;73.17;101540.81;1664980;83;27492;-78
2022/04/28 03:34:00;;;;;;;11.43;5.70;;;;;;;4.57;73.09;101535.64;1675849;84;26060;-77
2022/04/28 03:39:10;;;;;;;8.58;4.83;;;;;;;4.69;73.23;101543.92;1652912;84;26482;-78
2022/04/28 03:41:37;;;;;;;9.38;5.83;;;;;;;4.71;73.18;101543.78;1632358;84;26488;-78
2022/04/28 03:44:03;;;;;;;12.60;7.00;;;;;;;4.67;73.25;101545.00;1642029;84;28278;-77
2022/04/28 03:46:29;;;;;;;14.50;6.70;;;;;;;4.65;73.28;101545.14;1663405;84;25967;-78
2022/04/28 03:48:56;;;;;;;8.23;5.30;;;;;;;4.66;73.20;101544.66;1658815;84;25313;-77
2022/04/28 03:51:22;;;;;;;14.75;6.75;;;;;;;4.69;73.25;101543.92;1656119;84;26533;-77
2022/04/28 03:53:48;;;;;;;12.37;6.95;;;;;;;4.76;73.25;101551.37;1674492;83;25793;-77
2022/04/28 03:56:15;;;;;;;13.85;7.00;;;;;;;4.80;73.38;101548.81;1631355;85;28589;-77
2022/04/28 03:58:41;;;;;;;15.65;6.35;;;;;;;4.86;73.34;101553.61;1664240;84;25897;-77
2022/04/28 04:01:08;;;;;;;14.30;6.87;;;;;;;4.90;73.29;101561.70;1652132;86;25860;-78
2022/04/28 04:03:36;;;;;;;9.50;6.25;;;;;;;4.88;73.29;101555.17;1642545;84;25817;-77
2022/04/28 04:06:02;;;;;;;14.38;6.10;;;;;;;4.88;73.30;101556.98;1649452;84;26657;-77
2022/04/28 04:08:29;;;;;;;12.53;6.20;;;;;;;4.91;73.21;101563.38;1664663;84;28579;-78
2022/04/28 04:10:57;;;;;;;10.90;5.83;;;;;;;4.96;73.32;101559.36;1657996;84;25991;-77
2022/04/28 04:13:24;;;;;;;10.85;5.55;;;;;;;5.02;73.14;101560.68;1654845;84;26264;-78
2022/04/28 04:15:52;;;;;;;9.13;5.22;;;;;;;5.09;73.07;101564.01;1639310;84;26576;-78
2022/04/28 04:18:31;;;;;;;10.03;5.12;;;;;;;5.13;73.07;101571.25;1654634;84;25920;-78
2022/04/28 04:20:59;;;;;;;10.18;5.42;;;;;;;5.12;73.04;101573.06;1620373;86;28357;-78
2022/04/28 04:23:25;;;;;;;11.08;6.10;;;;;;;5.10;73.67;101576.80;1612543;86;25945;-77
2022/04/28 04:25:52;;;;;;;11.25;5.85;;;;;;;5.09;73.76;101577.80;1628351;85;25962;-77
2022/04/28 04:28:20;;;;;;;9.13;5.30;;;;;;;5.09;73.83;101579.13;1633940;85;26008;-78
2022/04/28 04:33:42;;;;;;;14.33;6.70;;;;;;;5.12;74.22;101580.17;1621054;86;27491;-78
2022/04/28 04:36:09;;;;;;;12.43;5.65;;;;;;;5.18;74.34;101588.48;1622811;86;26017;-78
2022/04/28 04:38:35;;;;;;;12.68;6.35;;;;;;;5.24;74.64;101577.34;1645062;85;25953;-77
2022/04/28 04:41:02;;;;;;;10.28;5.83;;;;;;;5.29;74.86;101583.11;1647431;85;26099;-77
2022/04/28 04:43:29;;;;;;;19.25;5.60;;;;;;;5.34;74.41;101593.36;1648376;85;25767;-78
2022/04/28 04:45:57;;;;;;;8.53;4.80;;;;;;;5.40;74.86;101593.69;1638309;85;27393;-78
2022/04/28 04:48:25;;;;;;;10.48;5.55;;;;;;;5.41;75.17;101590.04;1629185;85;25840;-78
2022/04/28 04:50:52;;;;;;;10.63;5.75;;;;;;;5.42;75.25;101590.41;1625734;86;26619;-78
2022/04/28 04:53:37;;;;;;;9.35;4.42;;;;;;;5.45;75.16;101595.45;1647933;85;25927;-78
2022/04/28 04:56:05;;;;;;;9.90;4.75;;;;;;;5.51;75.12;101599.90;1646948;85;25721;-78
2022/04/28 04:58:31;;;;;;;12.00;4.95;;;;;;;5.54;75.81;101612.43;1621501;86;28251;-78
2022/04/28 05:00:58;;;;;;;10.05;4.53;;;;;;;5.52;76.37;101618.36;1609391;85;25839;-77
2022/04/28 05:03:25;;;;;;;10.32;4.80;;;;;;;5.53;76.84;101612.09;1626079;86;25835;-78
2022/04/28 05:06:10;;;;;;;9.00;4.72;;;;;;;5.56;76.55;101613.65;1644286;85;26538;-78
2022/04/28 05:08:47;;;;;;;8.13;4.90;;;;;;;5.62;76.58;101615.78;1630133;86;25813;-78
2022/04/28 05:11:14;;;;;;;7.65;4.85;;;;;;;5.68;77.04;101613.45;1630081;86;27444;-78
2022/04/28 05:13:42;;;;;;;7.90;4.72;;;;;;;5.75;76.88;101617.24;1615969;85;26075;-78
2022/04/28 05:16:10;;;;;;;9.40;5.00;;;;;;;5.79;76.44;101620.50;1656058;85;25874;-78
2022/04/28 05:18:38;;;;;;;9.40;5.58;;;;;;;5.77;76.01;101625.11;1619267;86;26460;-78
2022/04/28 05:21:06;;;;;;;10.72;5.92;;;;;;;5.75;75.96;101620.41;1629141;86;26537;-78
2022/04/28 05:23:51;;;;;;;9.10;5.87;;;;;;;5.74;75.95;101620.89;1599862;87;27663;-78
2022/04/28 05:26:34;;;;;;;9.95;5.35;;;;;;;5.74;75.96;101628.02;1595995;88;26323;-78
2022/04/28 05:29:03;;;;;;;14.50;5.40;;;;;;;5.72;75.90;101623.32;1604581;87;26466;-79
2022/04/28 05:31:29;;;;;;;10.10;5.37;;;;;;;5.71;76.02;101625.12;1591820;87;26554;-78
2022/04/28 05:34:12;;;;;;;10.85;6.03;;;;;;;5.71;75.56;101631.77;1603488;87;25837;-78
2022/04/28 05:36:41;;;;;;;9.93;6.10;;;;;;;5.76;75.91;101636.22;1600135;87;27575;-78
2022/04/28 05:39:07;;;;;;;10.43;5.95;;;;;;;5.80;76.01;101637.64;1582346;87;26011;-78
2022/04/28 05:41:35;;;;;;;9.50;5.35;;;;;;;5.84;76.09;101640.91;1617775;86;25881;-78
2022/04/28 05:46:46;;;;;;;8.30;4.90;;;;;;;5.84;76.41;101640.42;1611728;87;26028;-78
2022/04/28 05:49:13;;;;;;;9.70;5.10;;;;;;;5.84;75.99;101633.78;1601531;87;27437;-77
2022/04/28 05:51:41;;;;;;;7.97;5.50;;;;;;;5.83;76.20;101636.55;1609546;87;26533;-78
2022/04/28 05:54:09;;;;;;;11.60;5.58;;;;;;;5.81;76.30;101638.02;1594492;87;25766;-77
2022/04/28 05:56:36;;;;;;;8.88;5.53;;;;;;;5.78;76.69;101642.73;1597419;87;25864;-78
2022/04/28 05:59:04;;;;;;;9.65;5.00;;;;;;;5.74;76.07;101637.33;1618871;86;25754;-78
2022/04/28 06:01:38;;;;;;;9.58;4.83;;;;;;;5.74;76.14;101635.52;1609159;87;27561;-78
2022/04/28 06:04:06;;;;;;;6.83;4.65;;;;;;;5.72;76.33;101636.61;1601102;87;25908;-77
2022/04/28 06:06:34;;;;;;;8.20;5.83;;;;;;;5.67;76.07;101633.01;1615737;86;25340;-78
2022/04/28 06:09:02;;;;;;;9.75;4.53;;;;;;;5.67;76.12;101639.66;1608084;86;26546;-78
2022/04/28 06:11:29;;;;;;;8.73;4.90;;;;;;;5.67;76.13;101636.14;1609498;87;26228;-79
2022/04/28 06:13:55;;;;;;;9.73;5.00;;;;;;;5.65;76.77;101643.41;1588869;88;27524;-78
2022/04/28 06:16:41;;;;;;;11.57;5.28;;;;;;;5.67;76.76;101640.13;1610004;87;25790;-78
2022/04/28 06:19:12;;;;;;;8.60;5.00;;;;;;;5.69;76.79;101643.53;1588106;86;26727;-78
2022/04/28 06:21:40;;;;;;;9.48;4.95;;;;;;;5.73;76.98;101639.64;1553495;84;25960;-78
2022/04/28 06:24:07;;;;;;;10.68;5.22;;;;;;;5.80;77.48;101639.45;1663538;84;26520;-79
2022/04/28 06:26:33;;;;;;;10.30;5.70;;;;;;;5.88;77.81;101639.19;1641182;84;27544;-79
2022/04/28 06:29:00;;;;;;;8.03;6.17;;;;;;;5.98;77.72;101633.45;1655283;84;25948;-78
2022/04/28 06:31:27;;;;;;;10.45;5.97;;;;;;;6.07;77.67;101627.31;1671427;84;25852;-79
2022/04/28 06:33:55;;;;;;;10.40;5.83;;;;;;;6.17;77.68;101629.56;1662271;84;26653;-78
2022/04/28 06:36:26;;;;;;;15.23;5.45;;;;;;;6.24;78.12;101624.03;1665679;84;25966;-79
2022/04/28 06:38:53;;;;;;;11.25;7.33;;;;;;;6.31;77.89;101638.16;1664175;84;28299;-78
2022/04/28 06:41:21;;;;;;;11.50;7.22;;;;;;;6.40;77.82;101637.33;1651822;84;25779;-78
2022/04/28 06:43:49;;;;;;;14.05;6.40;;;;;;;6.48;77.76;101636.19;1639650;84;25957;-78
2022/04/28 06:46:32;;;;;;;11.40;6.40;;;;;;;6.53;77.37;101629.47;1662366;84;25849;-78
2022/04/28 06:49:17;;;;;;;12.13;7.45;;;;;;;6.61;77.03;101639.42;1661217;84;25918;-78
2022/04/28 06:51:58;;;;;;;12.83;7.07;;;;;;;6.68;76.76;101641.91;1648827;84;27528;-78
2022/04/28 06:54:26;;;;;;;16.50;7.75;;;;;;;6.73;77.10;101637.88;1651171;85;26067;-78
2022/04/28 06:56:52;;;;;;;15.43;6.65;;;;;;;6.83;77.62;101640.54;1657966;84;26177;-78
2022/04/28 06:59:20;;;;;;;9.65;5.80;;;;;;;6.91;76.73;101640.69;1638723;85;25763;-78
2022/04/28 07:01:48;;;;;;;10.23;6.30;;;;;;;6.92;76.43;101631.25;1664897;84;25782;-79
2022/04/28 07:04:14;;;;;;;11.05;5.97;;;;;;;7.03;76.89;101634.76;1647996;85;28237;-78
2022/04/28 07:06:42;;;;;;;11.75;6.92;;;;;;;7.12;77.05;101631.27;1663438;84;25964;-77
2022/04/28 07:09:08;;;;;;;9.80;6.22;;;;;;;7.19;76.63;101640.36;1653663;84;25835;-78
2022/04/28 07:11:35;;;;;;;10.15;5.78;;;;;;;7.26;76.95;101635.69;1655897;84;25944;-78
2022/04/28 07:14:03;;;;;;;11.25;5.87;;;;;;;7.37;76.98;101642.22;1665627;84;25886;-78
2022/04/28 07:16:40;;;;;;;10.40;6.37;;;;;;;7.47;76.84;101645.70;1660751;84;28425;-78
2022/04/28 07:19:12;;;;;;;11.28;5.58;;;;;;;7.55;76.09;101641.83;1639263;84;25760;-78
2022/04/28 07:21:39;;;;;;;11.08;5.35;;;;;;;7.59;75.95;101649.89;1608881;87;25809;-78
2022/04/28 07:24:05;;;;;;;10.43;5.87;;;;;;;7.64;76.51;101650.32;1661945;84;25861;-78
2022/04/28 07:26:32;;;;;;;8.25;5.47;;;;;;;7.75;76.73;101653.32;1639590;85;25748;-78
2022/04/28 07:28:58;;;;;;;10.93;5.58;;;;;;;7.89;76.56;101648.86;1652163;85;28275;-78
2022/04/28 07:31:44;;;;;;;11.53;6.40;;;;;;;8.02;76.74;101645.91;1609851;86;25938;-78
2022/04/28 07:34:11;;;;;;;9.08;5.80;;;;;;;8.17;76.47;101648.45;1635247;85;25866;-78
2022/04/28 07:36:40;;;;;;;10.68;5.87;;;;;;;8.35;77.09;101656.06;1653075;86;25911;-78
2022/04/28 07:39:24;;;;;;;9.73;5.40;;;;;;;8.48;75.99;101646.74;1649327;84;25834;-78
2022/04/28 07:42:11;;;;;;;11.28;7.28;;;;;;;8.67;76.33;101647.62;1652402;86;27478;-78
2022/04/28 07:44:39;;;;;;;8.55;5.83;;;;;;;8.81;75.91;101651.95;1649743;85;26018;-78
2022/04/28 07:47:05;;;;;;;10.63;5.15;;;;;;;8.94;75.05;101647.09;1635635;86;26379;-78
2022/04/28 07:49:36;;;;;;;7.22;5.30;;;;;;;9.00;74.74;101649.16;1647826;84;25785;-78
2022/04/28 07:52:03;;;;;;;10.75;5.58;;;;;;;9.06;74.23;101643.23;1594903;87;26016;-78
2022/04/28 07:54:29;;;;;;;7.70;4.83;;;;;;;9.09;73.81;101651.42;1625612;86;28301;-78
2022/04/28 07:56:55;;;;;;;11.30;5.53;;;;;;;9.12;73.38;101649.30;1641308;85;26121;-78
2022/04/28 07:59:22;;;;;;;8.88;5.30;;;;;;;9.15;73.29;101652.98;1658079;85;26055;-78
2022/04/28 08:01:51;;;;;;;6.97;5.12;;;;;;;9.19;73.30;101653.06;1630829;85;25852;-78
2022/04/28 08:04:17;;;;;;;7.72;5.37;;;;;;;9.23;73.00;101653.09;1634289;86;25785;-78
2022/04/28 08:06:45;;;;;;;9.40;5.83;;;;;;;9.28;73.31;101654.80;1650285;84;27542;-79
2022/04/28 08:09:12;;;;;;;8.18;5.20;;;;;;;9.40;74.22;101651.90;1648690;84;25370;-78
2022/04/28 08:11:40;;;;;;;10.15;5.50;;;;;;;9.49;74.34;101653.66;1649295;85;25802;-79
2022/04/28 08:14:07;;;;;;;8.80;5.40;;;;;;;9.62;73.71;101658.97;1620673;85;26422;-78
2022/04/28 08:16:34;;;;;;;12.63;6.35;;;;;;;9.71;73.56;101661.20;1606735;87;26428;-78
2022/04/28 08:19:01;;;;;;;6.87;5.60;;;;;;;9.81;73.56;101671.31;1599664;87;27468;-78
2022/04/28 08:21:38;;;;;;;11.28;5.42;;;;;;;9.92;73.88;101680.44;1646360;84;25857;-78
2022/04/28 08:24:06;;;;;;;7.97;5.10;;;;;;;10.00;73.28;101673.30;1635638;85;25795;-78
2022/04/28 08:26:32;;;;;;;7.58;4.78;;;;;;;10.03;72.45;101668.11;1643501;85;26588;-78
2022/04/28 08:29:00;;;;;;;10.45;5.17;;;;;;;10.12;72.46;101665.02;1621905;85;25798;-78
2022/04/28 08:31:29;;;;;;;11.05;5.55;;;;;;;10.26;72.22;101668.47;1634086;85;27488;-78
2022/04/28 08:33:55;;;;;;;7.72;5.08;;;;;;;10.38;72.45;101666.69;1649658;85;26462;-78
2022/04/28 08:36:23;;;;;;;7.33;4.83;;;;;;;10.49;71.37;101668.25;1634249;85;26535;-78
2022/04/28 08:38:52;;;;;;;13.22;5.22;;;;;;;10.61;71.50;101664.27;1637468;85;25811;-78
2022/04/28 08:41:28;;;;;;;8.03;4.42;;;;;;;10.73;70.48;101658.98;1642757;85;25907;-78
2022/04/28 08:44:22;;;;;;;7.42;4.60;;;;;;;10.85;69.47;101667.05;1632506;85;27467;-78
2022/04/28 08:46:58;;;;;;;9.15;4.85;;;;;;;10.94;69.60;101666.58;1617422;85;25962;-79
2022/04/28 08:49:30;;;;;;;7.15;4.58;;;;;;;11.12;68.75;101657.40;1638973;85;25844;-79
2022/04/28 08:52:12;;;;;;;8.35;4.40;;;;;;;11.27;68.86;101666.48;1596419;85;26472;-78
2022/04/28 08:54:41;;;;;;;7.92;4.97;;;;;;;11.41;67.76;101665.00;1641217;85;25327;-78
2022/04/28 08:57:08;;;;;;;7.30;4.22;;;;;;;11.55;67.03;101664.33;1603736;87;27550;-78
2022/04/28 08:59:34;;;;;;;7.30;4.87;;;;;;;11.63;66.86;101661.67;1633510;85;25886;-79
2022/04/28 09:02:00;;;;;;;10.38;4.85;;;;;;;11.75;67.14;101667.55;1641397;85;26173;-79
2022/04/28 09:04:32;;;;;;;6.78;4.47;;;;;;;11.87;66.39;101666.23;1627955;85;25948;-79
2022/04/28 09:07:07;;;;;;;7.47;4.28;;;;;;;11.99;65.72;101664.86;1617949;85;25860;-78
2022/04/28 09:09:42;;;;;;;8.70;4.75;;;;;;;12.12;65.87;101655.77;1632083;85;27455;-79
2022/04/28 09:12:27;;;;;;;7.25;4.87;;;;;;;12.18;65.15;101659.96;1621319;85;25861;-78
2022/04/28 09:15:12;;;;;;;6.40;4.45;;;;;;;12.21;65.09;101652.88;1610992;87;25781;-78
2022/04/28 09:17:41;;;;;;;7.15;4.55;;;;;;;12.26;65.50;101657.25;1610786;87;25883;-79
2022/04/28 09:20:13;;;;;;;7.70;4.40;;;;;;;12.39;64.85;101654.86;1621165;85;25768;-78
2022/04/28 09:22:43;;;;;;;6.37;4.42;;;;;;;12.47;64.42;101656.67;1648136;84;28447;-78
2022/04/28 09:25:12;;;;;;;8.28;5.35;;;;;;;12.57;64.60;101659.17;1657813;84;25774;-78
2022/04/28 09:27:40;;;;;;;6.55;4.60;;;;;;;12.67;63.73;101657.10;1629194;84;25825;-78
2022/04/28 09:30:08;;;;;;;7.80;4.60;;;;;;;12.76;63.93;101655.56;1658328;84;26672;-79
2022/04/28 09:32:39;;;;;;;8.38;4.97;;;;;;;12.87;63.41;101651.11;1659618;84;25841;-78
2022/04/28 09:35:24;;;;;;;6.45;4.47;;;;;;;13.00;63.36;101651.91;1656951;84;27481;-78
2022/04/28 09:37:52;;;;;;;9.03;4.70;;;;;;;13.07;63.13;101653.73;1640929;84;25784;-78
2022/04/28 09:43:05;;;;;;;10.05;5.45;;;;;;;13.23;61.81;101651.45;1636004;84;25968;-78
2022/04/28 09:45:39;;;;;;;9.60;6.55;;;;;;;13.35;62.00;101650.52;1651526;84;25855;-79
2022/04/28 09:48:05;;;;;;;7.62;5.62;;;;;;;13.46;61.38;101656.33;1658075;85;27644;-78
2022/04/28 09:50:36;;;;;;;7.78;5.20;;;;;;;13.55;62.10;101651.72;1638880;84;25347;-79
2022/04/28 09:53:06;;;;;;;7.03;5.25;;;;;;;13.66;62.42;101643.22;1594534;87;26493;-78
2022/04/28 09:55:40;;;;;;;8.20;5.65;;;;;;;13.80;62.13;101651.33;1604950;87;25856;-78
2022/04/28 09:58:10;;;;;;;8.33;6.47;;;;;;;13.88;60.63;101652.59;1614214;88;25777;-78
2022/04/28 10:00:36;;;;;;;6.35;4.72;;;;;;;13.97;58.01;101652.02;1623816;86;27650;-78
2022/04/28 10:03:03;;;;;;;8.65;5.33;;;;;;;14.02;60.37;101641.53;1640297;84;26536;-78
2022/04/28 10:05:32;;;;;;;7.75;5.28;;;;;;;14.16;58.19;101651.98;1636819;84;25764;-79
2022/04/28 10:08:04;;;;;;;6.47;5.50;;;;;;;14.19;58.15;101648.43;1657446;84;26658;-78
2022/04/28 10:10:31;;;;;;;7.55;5.62;;;;;;;14.23;57.51;101646.19;1655899;84;26196;-79
2022/04/28 10:13:00;;;;;;;6.35;4.85;;;;;;;14.28;56.99;101641.09;1650094;84;28148;-79
2022/04/28 10:15:32;;;;;;;7.72;5.33;;;;;;;14.30;57.30;101636.38;1639231;84;25683;-78
2022/04/28 10:18:04;;;;;;;;;;;;;;;14.35;57.63;101640.72;1661600;84;25789;-78
2022/04/28 10:20:47;;;;;;;6.47;4.67;;;;;;;14.42;57.59;101644.31;1639431;84;26249;-78
2022/04/28 10:23:16;;;;;;;7.08;4.83;;;;;;;14.50;55.87;101638.83;1629694;85;26181;-79
2022/04/28 10:34:33;;;;;;;6.37;4.87;;;;;;;14.65;55.04;101639.14;1620882;85;26579;-79
2022/04/28 10:37:04;;;;;;;6.40;4.62;;;;;;;14.70;54.97;101638.58;1623043;85;25833;-78
2022/04/28 10:39:42;;;;;;;;;;;;;;;14.75;53.76;101640.22;1641436;85;27438;-78
2022/04/28 10:42:28;;;;;;;7.15;4.12;;;;;;;14.83;53.69;101640.60;1628930;86;25826;-78
2022/04/28 10:44:57;;;;;;;4.80;4.30;;;;;;;14.91;54.63;101642.67;1616299;86;25916;-79
2022/04/28 10:47:38;;;;;;;6.25;4.72;;;;;;;14.97;54.45;101637.05;1616458;86;26482;-79
2022/04/28 10:50:23;;;;;;;7.53;5.67;;;;;;;15.05;53.40;101643.17;1603797;85;25478;-78
2022/04/28 10:53:01;;;;;;;6.83;5.25;;;;;;;15.06;52.60;101644.83;1641052;85;27707;-79
2022/04/28 10:55:41;;;;;;;7.55;5.03;;;;;;;15.02;52.05;101639.49;1622973;87;26080;-78
2022/04/28 10:58:25;;;;;;;6.72;4.75;;;;;;;15.01;52.22;101643.20;1602774;86;25948;-78
2022/04/28 11:00:56;;;;;;;5.37;4.30;;;;;;;15.06;52.52;101642.63;1638375;86;26764;-79
2022/04/28 11:03:50;;;;;;;6.10;4.53;;;;;;;15.13;52.38;101639.50;1616397;86;26032;-79
2022/04/28 11:06:39;;;;;;;9.85;4.95;;;;;;;15.25;52.89;101642.86;1633389;86;28358;-79
2022/04/28 11:09:09;;;;;;;7.70;4.50;;;;;;;15.31;52.88;101638.03;1616064;86;25295;-78
2022/04/28 11:11:47;;;;;;;5.08;4.33;;;;;;;15.22;51.81;101645.11;1630931;86;25956;-79
2022/04/28 11:14:14;;;;;;;5.42;4.62;;;;;;;15.10;51.47;101641.22;1622910;85;26559;-78
2022/04/28 11:16:42;;;;;;;6.08;5.10;;;;;;;15.02;50.95;101639.49;1626907;86;26532;-79
2022/04/28 11:19:10;;;;;;;5.15;4.55;;;;;;;14.94;50.33;101632.87;1621503;86;27439;-79
2022/04/28 11:21:39;;;;;;;8.48;5.50;;;;;;;14.94;51.37;101635.56;1622610;85;26623;-78
2022/04/28 11:24:07;;;;;;;12.00;4.87;;;;;;;15.08;52.99;101643.28;1594149;87;25812;-79
2022/04/28 11:26:39;;;;;;;6.95;4.83;;;;;;;15.28;52.05;101643.83;1572879;87;26011;-78
2022/04/28 11:29:10;;;;;;;8.23;5.67;;;;;;;15.35;52.07;101631.75;1593458;87;26597;-78
2022/04/28 11:31:46;;;;;;;7.37;5.10;;;;;;;15.42;49.25;101633.47;1571304;89;27457;-78
2022/04/28 11:34:13;;;;;;;7.80;4.62;;;;;;;15.44;50.95;101630.60;1557323;89;26590;-79
2022/04/28 11:36:41;;;;;;;5.47;4.80;;;;;;;15.50;50.92;101631.20;1597943;87;25836;-79
2022/04/28 11:39:08;;;;;;;7.10;5.15;;;;;;;15.63;50.58;101635.89;1599923;87;26002;-78
2022/04/28 11:41:40;;;;;;;6.10;5.22;;;;;;;15.67;48.75;101637.16;1642849;85;25827;-79
2022/04/28 11:44:16;;;;;;;7.30;5.60;;;;;;;15.64;47.08;101633.48;1650183;85;28932;-79
2022/04/28 11:46:51;;;;;;;7.33;5.30;;;;;;;15.57;48.11;101633.97;1644063;85;25942;-79
2022/04/28 11:49:18;;;;;;;6.25;4.53;;;;;;;15.60;49.72;101633.05;1628121;85;25362;-78
2022/04/28 11:51:45;;;;;;;8.35;4.90;;;;;;;15.69;49.51;101637.30;1638394;85;25886;-79
2022/04/28 11:54:25;;;;;;;6.10;4.15;;;;;;;15.73;48.79;101632.33;1622418;85;25961;-79
2022/04/28 11:57:09;;;;;;;6.42;4.42;;;;;;;15.75;48.96;101635.67;1632776;85;27473;-79
2022/04/28 11:59:39;;;;;;;6.40;4.67;;;;;;;15.75;49.18;101632.97;1635124;85;25727;-78
2022/04/28 12:02:26;;;;;;;7.10;5.12;;;;;;;15.70;47.56;101639.46;1648167;83;26145;-79
2022/04/28 12:04:52;;;;;;;7.62;5.05;;;;;;;15.65;47.35;101634.67;1637059;85;25904;-79
2022/04/28 12:07:29;;;;;;;7.97;5.17;;;;;;;15.74;47.66;101636.72;1633338;86;25846;-79
2022/04/28 12:15:26;;;;;;;7.28;5.62;;;;;;;15.80;46.39;101629.17;1645027;86;25828;-79
2022/04/28 12:20:57;;;;;;;5.28;4.53;;;;;;;15.72;46.92;101618.48;1688009;84;25827;-78
2022/04/28 12:23:32;;;;;;;6.97;4.27;;;;;;;15.79;46.12;101624.79;1687989;84;28405;-79